Time;durP1;ratioP1;P1;durP2;ratioP2;P2;SDS_P1;SDS_P2;PMS_P1;PMS_P2;Temp;Humidity;BMP_temperature;BMP_pressure;BME280_temperature;BME280_humidity;BME280_pressure;Samples;Min_cycle;Max_cycle;Signal;HPM_P1;HPM_P2
2022/01/03 00:00:16;;;;;;;13.40;4.83;;;11.20;99.90;;;;;;5066385;28;20411;-43
2022/01/03 00:02:43;;;;;;;8.13;4.17;;;11.20;99.90;;;;;;5066803;28;20925;-42
2022/01/03 00:05:09;;;;;;;9.10;4.13;;;11.10;99.90;;;;;;5059378;28;20937;-43
2022/01/03 00:07:42;;;;;;;11.77;4.13;;;11.10;99.90;;;;;;5055245;28;20470;-43
2022/01/03 00:10:09;;;;;;;6.47;3.63;;;11.10;99.90;;;;;;5066617;28;20414;-46
2022/01/03 00:12:35;;;;;;;6.43;3.50;;;11.20;99.90;;;;;;5065997;28;21114;-43
2022/01/03 00:15:03;;;;;;;8.67;3.70;;;11.10;99.90;;;;;;5066449;28;20419;-43
2022/01/03 00:17:28;;;;;;;8.37;3.13;;;11.00;99.90;;;;;;5076204;28;20433;-42
2022/01/03 00:19:54;;;;;;;5.50;2.40;;;11.30;99.90;;;;;;5086091;28;20420;-43
2022/01/03 00:22:23;;;;;;;10.50;3.00;;;11.10;99.90;;;;;;5062116;28;20220;-45
2022/01/03 00:24:59;;;;;;;10.13;3.03;;;11.20;99.90;;;;;;5065551;28;20193;-43
2022/01/03 00:27:35;;;;;;;8.50;2.70;;;11.00;99.90;;;;;;5066132;28;20423;-42
2022/01/03 00:30:01;;;;;;;6.27;2.60;;;11.00;99.90;;;;;;5066727;28;20411;-43
2022/01/03 00:32:28;;;;;;;11.73;3.40;;;11.00;99.90;;;;;;5081967;28;20458;-43
2022/01/03 00:34:55;;;;;;;6.03;3.00;;;10.90;99.90;;;;;;5066032;28;20451;-43
2022/01/03 00:37:25;;;;;;;7.70;3.10;;;11.00;99.90;;;;;;5055745;28;20531;-42
2022/01/03 00:39:53;;;;;;;10.47;3.47;;;11.00;99.90;;;;;;5065897;28;20963;-43
2022/01/03 00:42:19;;;;;;;6.40;3.60;;;10.90;99.90;;;;;;5070185;28;20858;-44
2022/01/03 00:44:46;;;;;;;4.70;3.67;;;10.90;99.90;;;;;;5069555;28;20829;-42
2022/01/03 00:47:12;;;;;;;8.07;3.60;;;10.80;99.90;;;;;;5069882;28;20521;-42
2022/01/03 00:49:41;;;;;;;6.47;4.20;;;10.80;99.90;;;;;;5069975;28;20934;-43
2022/01/03 00:52:06;;;;;;;9.57;2.90;;;10.80;99.90;;;;;;5061153;28;20835;-43
2022/01/03 00:54:32;;;;;;;9.23;3.90;;;10.80;99.90;;;;;;5068889;28;20451;-44
2022/01/03 00:57:04;;;;;;;5.10;2.60;;;10.60;99.90;;;;;;5069702;28;20428;-45
2022/01/03 00:59:42;;;;;;;4.97;2.50;;;10.70;99.90;;;;;;5070014;28;20193;-43
2022/01/03 01:02:08;;;;;;;11.20;3.23;;;10.70;99.90;;;;;;5069681;28;20419;-43
2022/01/03 01:04:35;;;;;;;15.73;2.83;;;10.80;99.90;;;;;;5069029;28;20792;-43
2022/01/03 01:07:04;;;;;;;11.13;2.87;;;10.60;99.90;;;;;;5064426;28;20875;-43
2022/01/03 01:09:30;;;;;;;7.33;2.50;;;10.70;99.90;;;;;;5068814;28;20502;-45
2022/01/03 01:11:58;;;;;;;11.60;3.23;;;10.60;99.90;;;;;;5069868;28;20511;-43
2022/01/03 01:14:25;;;;;;;8.40;3.20;;;10.80;99.90;;;;;;5068965;28;20609;-42
2022/01/03 01:16:51;;;;;;;5.77;2.30;;;10.90;99.90;;;;;;5088099;28;20461;-42
2022/01/03 01:19:18;;;;;;;8.17;2.50;;;10.70;99.90;;;;;;5088495;28;20972;-48
2022/01/03 01:21:43;;;;;;;9.63;3.60;;;10.70;99.90;;;;;;5079614;28;20280;-44
2022/01/03 01:24:10;;;;;;;6.73;2.50;;;10.80;99.90;;;;;;5059648;28;20506;-44
2022/01/03 01:29:20;;;;;;;13.23;2.63;;;10.70;99.90;;;;;;5069166;28;20520;-45
2022/01/03 01:31:48;;;;;;;7.40;2.20;;;10.70;99.90;;;;;;5068894;28;20462;-43
2022/01/03 01:34:26;;;;;;;7.07;2.37;;;10.80;99.90;;;;;;5068509;28;20185;-43
2022/01/03 01:36:55;;;;;;;8.60;2.53;;;10.70;99.90;;;;;;5063337;28;20937;-43
2022/01/03 01:39:23;;;;;;;10.30;2.70;;;10.60;99.90;;;;;;5067797;28;20803;-45
2022/01/03 01:41:56;;;;;;;9.27;2.40;;;10.60;99.90;;;;;;5069191;28;20580;-43
2022/01/03 01:44:25;;;;;;;17.67;3.00;;;10.70;99.90;;;;;;5068325;28;20572;-42
2022/01/03 01:46:56;;;;;;;14.90;4.03;;;10.60;99.90;;;;;;5068645;28;20473;-44
2022/01/03 01:49:26;;;;;;;7.33;2.50;;;10.60;99.90;;;;;;5068202;28;20971;-45
2022/01/03 01:52:02;;;;;;;9.87;3.67;;;10.80;99.90;;;;;;5064672;28;20476;-43
2022/01/03 01:54:37;;;;;;;13.70;3.40;;;10.50;99.90;;;;;;5062814;28;20411;-44
2022/01/03 01:57:19;;;;;;;18.40;3.60;;;10.60;99.90;;;;;;5068214;28;20541;-43
2022/01/03 02:00:08;;;;;;;13.17;3.13;;;10.60;99.90;;;;;;5069043;28;20929;-43
2022/01/03 02:02:37;;;;;;;9.60;2.10;;;10.60;99.90;;;;;;5068418;28;20431;-44
2022/01/03 02:05:34;;;;;;;12.97;3.50;;;10.70;99.90;;;;;;5066801;28;20431;-44
2022/01/03 02:08:13;;;;;;;10.93;2.83;;;10.60;99.90;;;;;;5059057;28;20451;-43
2022/01/03 02:10:43;;;;;;;12.47;2.97;;;10.50;99.90;;;;;;5065217;28;20478;-42
2022/01/03 02:13:10;;;;;;;8.67;2.90;;;10.60;99.90;;;;;;5061709;28;20427;-42
2022/01/03 02:15:37;;;;;;;6.00;2.43;;;10.50;99.90;;;;;;5068046;28;20848;-43
2022/01/03 02:18:04;;;;;;;13.80;3.13;;;10.40;99.90;;;;;;5083017;28;20718;-42
2022/01/03 02:20:31;;;;;;;8.70;2.50;;;10.50;99.90;;;;;;5087672;28;20541;-46
2022/01/03 02:22:57;;;;;;;17.00;2.77;;;10.50;99.90;;;;;;5068694;28;21359;-42
2022/01/03 02:25:24;;;;;;;10.50;2.90;;;10.60;99.90;;;;;;5067956;28;20833;-43
2022/01/03 02:27:52;;;;;;;7.63;2.20;;;10.60;99.90;;;;;;5067795;28;20420;-44
2022/01/03 02:30:30;;;;;;;6.77;2.70;;;10.60;99.90;;;;;;5068230;28;20612;-42
2022/01/03 02:32:56;;;;;;;9.80;3.27;;;10.50;99.90;;;;;;5067359;28;20518;-42
2022/01/03 02:35:22;;;;;;;11.37;2.60;;;10.40;99.90;;;;;;5067939;28;20530;-44
2022/01/03 02:37:49;;;;;;;10.23;2.37;;;10.40;99.90;;;;;;5060759;28;20242;-42
2022/01/03 02:40:15;;;;;;;8.07;3.10;;;10.70;99.90;;;;;;5065763;28;20427;-45
2022/01/03 02:42:41;;;;;;;14.90;2.77;;;10.60;99.90;;;;;;5067114;28;20430;-43
2022/01/03 02:45:09;;;;;;;7.23;2.50;;;10.60;99.90;;;;;;5067717;28;20427;-45
2022/01/03 02:47:35;;;;;;;13.63;2.40;;;10.60;99.90;;;;;;5067764;28;20486;-43
2022/01/03 02:50:04;;;;;;;9.80;2.60;;;10.50;99.90;;;;;;5067795;28;20484;-42
2022/01/03 02:52:30;;;;;;;7.33;3.00;;;10.50;99.90;;;;;;5063573;28;20442;-43
2022/01/03 02:54:56;;;;;;;12.77;2.83;;;10.50;99.90;;;;;;5062066;28;20422;-43
2022/01/03 02:57:23;;;;;;;10.50;2.43;;;10.50;99.90;;;;;;5065806;28;20451;-43
2022/01/03 02:59:56;;;;;;;9.17;2.10;;;10.50;99.90;;;;;;5067465;28;20995;-43
2022/01/03 03:02:23;;;;;;;12.07;2.70;;;10.50;99.90;;;;;;5067410;28;20427;-42
2022/01/03 03:04:57;;;;;;;7.63;2.20;;;10.60;99.90;;;;;;5066677;28;20423;-43
2022/01/03 03:07:26;;;;;;;7.73;1.80;;;10.50;99.90;;;;;;5062991;28;20992;-44
2022/01/03 03:09:52;;;;;;;9.47;2.47;;;10.40;99.90;;;;;;5061542;28;20442;-43
2022/01/03 03:12:18;;;;;;;12.37;3.77;;;10.80;99.90;;;;;;5067262;28;20560;-42
2022/01/03 03:14:44;;;;;;;7.60;2.23;;;10.60;99.90;;;;;;5066581;28;20797;-43
2022/01/03 03:17:10;;;;;;;14.03;2.87;;;10.50;99.90;;;;;;5074669;28;20464;-42
2022/01/03 03:19:54;;;;;;;8.83;2.47;;;10.60;99.90;;;;;;5086307;28;20861;-43
2022/01/03 03:22:19;;;;;;;9.53;2.97;;;10.50;99.90;;;;;;5081566;28;20446;-45
2022/01/03 03:24:45;;;;;;;17.07;3.10;;;10.50;99.90;;;;;;5062744;28;20458;-42
2022/01/03 03:27:12;;;;;;;9.60;3.40;;;10.50;99.90;;;;;;5065763;28;20467;-44
2022/01/03 03:29:50;;;;;;;7.97;2.97;;;10.50;99.90;;;;;;5067158;28;20188;-45
2022/01/03 03:32:17;;;;;;;10.50;2.40;;;10.70;99.90;;;;;;5067192;28;20485;-43
2022/01/03 03:34:44;;;;;;;7.40;2.20;;;10.60;99.90;;;;;;5066302;28;20850;-45
2022/01/03 03:37:10;;;;;;;7.97;2.27;;;10.50;99.90;;;;;;5066372;28;20819;-44
2022/01/03 03:39:36;;;;;;;4.43;1.63;;;10.50;99.90;;;;;;5054633;28;20549;-43
2022/01/03 03:42:04;;;;;;;7.60;2.03;;;10.50;99.90;;;;;;5066723;28;20193;-44
2022/01/03 03:44:30;;;;;;;9.43;2.10;;;10.50;99.90;;;;;;5066385;28;20423;-43
2022/01/03 03:46:56;;;;;;;9.20;3.00;;;10.50;99.90;;;;;;5066627;28;20466;-43
2022/01/03 03:49:22;;;;;;;11.23;2.10;;;10.60;99.90;;;;;;5066715;28;20443;-42
2022/01/03 03:51:47;;;;;;;11.53;2.30;;;10.50;99.90;;;;;;5066947;28;20423;-43
2022/01/03 03:54:13;;;;;;;11.07;2.07;;;10.50;99.90;;;;;;5054999;28;20555;-43
2022/01/03 03:56:39;;;;;;;8.67;2.10;;;10.40;99.90;;;;;;5066521;28;20343;-45
2022/01/03 03:59:04;;;;;;;6.57;2.03;;;10.40;99.90;;;;;;5066903;28;20691;-42
2022/01/03 04:01:30;;;;;;;9.87;2.67;;;10.50;99.90;;;;;;5066660;28;20196;-43
2022/01/03 04:03:56;;;;;;;13.07;2.40;;;10.50;99.90;;;;;;5065877;28;20201;-44
2022/01/03 04:06:21;;;;;;;12.13;2.47;;;10.50;99.90;;;;;;5066656;28;20256;-44
2022/01/03 04:08:47;;;;;;;12.67;2.30;;;10.80;99.90;;;;;;5054794;28;20193;-43
2022/01/03 04:11:13;;;;;;;11.43;2.80;;;10.70;99.90;;;;;;5064130;28;20189;-44
2022/01/03 04:13:39;;;;;;;9.17;2.53;;;10.50;99.90;;;;;;5069252;28;20430;-45
2022/01/03 04:16:06;;;;;;;16.27;2.97;;;10.50;99.90;;;;;;5079257;28;20192;-43
2022/01/03 04:18:32;;;;;;;11.90;2.73;;;10.50;99.90;;;;;;5088210;28;20426;-43
2022/01/03 04:20:58;;;;;;;7.47;2.20;;;10.40;99.90;;;;;;5089889;28;20516;-43
2022/01/03 04:23:24;;;;;;;13.70;2.53;;;10.40;99.90;;;;;;5079628;28;20198;-43
2022/01/03 04:25:52;;;;;;;6.90;2.13;;;10.40;99.90;;;;;;5065313;28;20461;-43
2022/01/03 04:28:19;;;;;;;8.13;2.03;;;10.40;99.90;;;;;;5070174;28;20186;-43
2022/01/03 04:30:45;;;;;;;7.70;1.80;;;10.40;99.90;;;;;;5070391;28;20423;-43
2022/01/03 04:33:11;;;;;;;9.40;1.70;;;10.30;99.90;;;;;;5069099;28;20800;-43
2022/01/03 04:35:37;;;;;;;9.40;2.03;;;10.50;99.90;;;;;;5070435;28;20853;-44
2022/01/03 04:38:03;;;;;;;9.70;4.00;;;10.50;99.90;;;;;;5064355;28;20455;-47
2022/01/03 04:40:29;;;;;;;7.60;2.20;;;10.30;99.90;;;;;;5066569;28;20415;-43
2022/01/03 04:42:55;;;;;;;13.20;2.67;;;10.40;99.90;;;;;;5069247;28;20431;-43
2022/01/03 04:45:21;;;;;;;8.43;2.27;;;10.50;99.90;;;;;;5069919;28;20870;-47
2022/01/03 04:47:47;;;;;;;7.33;2.80;;;10.40;99.90;;;;;;5068430;28;20297;-43
2022/01/03 04:50:12;;;;;;;8.23;2.70;;;10.60;99.90;;;;;;5070044;28;20212;-44
2022/01/03 04:52:38;;;;;;;8.80;2.60;;;10.40;99.90;;;;;;5068269;28;20189;-43
2022/01/03 04:55:04;;;;;;;9.17;2.00;;;10.40;99.90;;;;;;5061421;28;20249;-43
2022/01/03 04:57:30;;;;;;;11.17;3.13;;;10.30;99.90;;;;;;5065601;28;20220;-43
2022/01/03 04:59:56;;;;;;;10.77;2.10;;;10.20;99.90;;;;;;5069593;28;20712;-43
2022/01/03 05:02:22;;;;;;;10.73;2.67;;;10.50;99.90;;;;;;5069662;28;20185;-43
2022/01/03 05:04:48;;;;;;;8.10;2.40;;;10.40;99.90;;;;;;5069165;28;20193;-43
2022/01/03 05:07:14;;;;;;;13.63;2.77;;;10.40;99.90;;;;;;5069592;28;20474;-42
2022/01/03 05:09:39;;;;;;;13.60;2.60;;;10.40;99.90;;;;;;5057703;28;20221;-42
2022/01/03 05:12:05;;;;;;;9.30;3.10;;;10.40;99.90;;;;;;5069561;28;20620;-44
2022/01/03 05:14:31;;;;;;;13.70;3.00;;;10.40;99.90;;;;;;5068863;28;20200;-46
2022/01/03 05:16:57;;;;;;;14.67;2.63;;;10.20;99.90;;;;;;5069810;28;20569;-42
2022/01/03 05:19:24;;;;;;;14.53;3.57;;;10.20;99.90;;;;;;5082200;28;20195;-42
2022/01/03 05:21:51;;;;;;;12.00;3.10;;;10.30;99.90;;;;;;5089547;28;20505;-43
2022/01/03 05:24:17;;;;;;;11.47;2.17;;;10.20;99.90;;;;;;5065585;28;20822;-43
2022/01/03 05:26:42;;;;;;;9.73;2.53;;;10.30;99.90;;;;;;5068891;28;20455;-43
2022/01/03 05:29:08;;;;;;;16.17;2.60;;;10.20;99.90;;;;;;5069395;28;21000;-43
2022/01/03 05:31:34;;;;;;;7.97;2.43;;;10.30;99.90;;;;;;5069073;28;20189;-44
2022/01/03 05:34:00;;;;;;;10.23;2.40;;;10.40;99.90;;;;;;5068864;28;20326;-43
2022/01/03 05:36:27;;;;;;;9.27;2.70;;;10.50;99.90;;;;;;5068868;28;20185;-42
2022/01/03 05:38:53;;;;;;;8.27;2.03;;;10.30;99.90;;;;;;5060721;28;20433;-43
2022/01/03 05:41:18;;;;;;;7.50;2.53;;;10.20;99.90;;;;;;5066238;28;20419;-43
2022/01/03 05:43:45;;;;;;;6.80;2.47;;;10.30;99.90;;;;;;5068408;28;20863;-45
2022/01/03 05:46:14;;;;;;;12.37;2.50;;;10.10;99.90;;;;;;5068508;28;20220;-43
2022/01/03 05:48:40;;;;;;;9.70;2.50;;;10.20;99.90;;;;;;5065198;28;20518;-43
2022/01/03 05:51:06;;;;;;;10.30;2.60;;;10.20;99.90;;;;;;5067000;28;20549;-43
2022/01/03 05:53:31;;;;;;;9.40;2.30;;;10.20;99.90;;;;;;5063634;28;20243;-42
2022/01/03 05:55:58;;;;;;;7.40;2.10;;;10.20;99.90;;;;;;5067057;28;20192;-43
2022/01/03 05:58:24;;;;;;;11.30;3.77;;;10.20;99.90;;;;;;5068233;28;20758;-43
2022/01/03 06:00:50;;;;;;;6.90;2.17;;;10.30;99.90;;;;;;5068760;28;20431;-42
2022/01/03 06:03:19;;;;;;;14.00;2.20;;;10.30;99.90;;;;;;5067882;28;20185;-44
2022/01/03 06:08:20;;;;;;;8.77;1.73;;;10.30;99.90;;;;;;5065090;28;20442;-42
2022/01/03 06:10:46;;;;;;;7.50;2.17;;;10.30;99.90;;;;;;5055698;28;20423;-43
2022/01/03 06:13:12;;;;;;;5.07;2.00;;;10.50;99.90;;;;;;5067065;28;20719;-43
2022/01/03 06:15:38;;;;;;;13.53;2.70;;;10.30;99.90;;;;;;5075821;28;20188;-43
2022/01/03 06:18:06;;;;;;;8.27;2.20;;;10.30;99.90;;;;;;5076227;28;20287;-42
2022/01/03 06:20:32;;;;;;;11.13;2.47;;;10.10;99.90;;;;;;5087075;28;20796;-45
2022/01/03 06:22:58;;;;;;;10.57;2.50;;;10.20;99.90;;;;;;5087723;28;20741;-45
2022/01/03 06:25:24;;;;;;;10.63;2.33;;;10.30;99.90;;;;;;5059615;28;20439;-45
2022/01/03 06:27:49;;;;;;;9.87;2.67;;;10.20;99.90;;;;;;5066294;28;20197;-43
2022/01/03 06:30:15;;;;;;;9.60;2.50;;;10.30;99.90;;;;;;5068100;28;20465;-43
2022/01/03 06:32:41;;;;;;;6.07;2.30;;;10.50;99.90;;;;;;5065129;28;20186;-43
2022/01/03 06:35:07;;;;;;;10.30;1.90;;;10.40;99.90;;;;;;5066964;28;20192;-44
2022/01/03 06:37:33;;;;;;;9.37;2.90;;;10.30;99.90;;;;;;5067927;28;20205;-44
2022/01/03 06:39:58;;;;;;;7.70;2.57;;;10.30;99.90;;;;;;5055369;28;20447;-43
2022/01/03 06:42:24;;;;;;;11.17;2.90;;;10.30;99.90;;;;;;5066504;28;20905;-42
2022/01/03 06:44:50;;;;;;;8.53;2.67;;;10.20;99.90;;;;;;5066994;28;20208;-43
2022/01/03 06:47:17;;;;;;;9.87;3.00;;;10.40;99.90;;;;;;5067530;28;20467;-42
2022/01/03 06:49:43;;;;;;;10.13;2.30;;;10.30;99.90;;;;;;5067739;28;20200;-48
2022/01/03 06:52:09;;;;;;;12.47;3.10;;;10.10;99.90;;;;;;5067596;28;20450;-47
2022/01/03 06:54:34;;;;;;;9.07;2.60;;;10.40;99.90;;;;;;5060495;28;20518;-43
2022/01/03 06:57:00;;;;;;;11.80;2.67;;;10.10;99.90;;;;;;5063220;28;20204;-43
2022/01/03 06:59:26;;;;;;;7.07;2.00;;;10.30;99.90;;;;;;5067880;28;20193;-43
2022/01/03 07:01:51;;;;;;;8.13;2.33;;;10.30;99.90;;;;;;5067662;28;20192;-43
2022/01/03 07:04:17;;;;;;;8.70;2.60;;;10.30;99.90;;;;;;5066887;28;20686;-42
2022/01/03 07:06:43;;;;;;;12.37;2.47;;;10.30;99.90;;;;;;5067206;28;20702;-43
2022/01/03 07:09:08;;;;;;;6.67;2.20;;;10.40;99.90;;;;;;5062235;28;20196;-42
2022/01/03 07:11:35;;;;;;;9.10;2.30;;;10.30;99.90;;;;;;5064023;28;20189;-43
2022/01/03 07:19:29;;;;;;;12.10;2.40;;;10.40;99.90;;;;;;5065655;28;20925;-43
2022/01/03 07:21:55;;;;;;;9.53;2.93;;;10.40;99.90;;;;;;5066513;28;20442;-45
2022/01/03 07:24:21;;;;;;;11.13;2.47;;;10.40;99.90;;;;;;5061137;28;20696;-44
2022/01/03 07:26:46;;;;;;;9.17;3.60;;;10.30;99.90;;;;;;5066181;28;20565;-44
2022/01/03 07:29:12;;;;;;;8.77;4.00;;;10.20;99.90;;;;;;5068560;28;20285;-45
2022/01/03 07:31:38;;;;;;;13.53;2.53;;;10.50;99.90;;;;;;5070630;28;20214;-44
2022/01/03 07:34:03;;;;;;;9.70;2.37;;;10.30;99.90;;;;;;5060006;28;20259;-46
2022/01/03 07:36:30;;;;;;;13.90;2.67;;;10.50;99.90;;;;;;5079362;28;20189;-43
2022/01/03 07:38:56;;;;;;;11.33;2.20;;;10.30;99.90;;;;;;5063665;28;20300;-43
2022/01/03 07:41:22;;;;;;;7.70;2.57;;;10.40;99.90;;;;;;5058458;28;20778;-43
2022/01/03 07:43:47;;;;;;;8.80;2.43;;;10.40;99.90;;;;;;5066363;28;21001;-48
2022/01/03 07:46:13;;;;;;;10.97;3.00;;;10.40;99.90;;;;;;5067001;28;20212;-43
2022/01/03 07:48:39;;;;;;;12.43;2.93;;;10.50;99.90;;;;;;5070238;28;20675;-43
2022/01/03 07:51:05;;;;;;;9.67;2.93;;;10.50;99.90;;;;;;5071272;28;20209;-43
2022/01/03 07:53:31;;;;;;;8.63;2.30;;;10.40;99.90;;;;;;5070264;28;20430;-45
2022/01/03 07:55:58;;;;;;;8.30;2.30;;;10.30;99.90;;;;;;5062764;28;20189;-44
2022/01/03 07:58:24;;;;;;;8.47;2.37;;;10.40;99.90;;;;;;5070428;28;20849;-43
2022/01/03 08:00:50;;;;;;;9.03;2.20;;;10.50;99.90;;;;;;5071075;28;20466;-45
2022/01/03 08:03:15;;;;;;;6.73;2.20;;;10.50;99.90;;;;;;5070592;28;20427;-43
2022/01/03 08:05:41;;;;;;;10.17;3.27;;;10.40;99.90;;;;;;5070643;28;20239;-42
2022/01/03 08:08:09;;;;;;;6.97;2.20;;;10.60;99.90;;;;;;5071072;28;20185;-43
2022/01/03 08:10:38;;;;;;;8.63;2.50;;;10.50;99.90;;;;;;5061059;28;20431;-44
2022/01/03 08:13:04;;;;;;;8.00;3.00;;;10.70;99.90;;;;;;5070052;28;20503;-43
2022/01/03 08:15:30;;;;;;;6.30;2.27;;;10.40;99.90;;;;;;5070444;28;20435;-43
2022/01/03 08:17:56;;;;;;;18.97;2.80;;;10.30;99.90;;;;;;5079386;28;20856;-43
2022/01/03 08:20:22;;;;;;;7.37;3.33;;;10.30;99.90;;;;;;5089447;28;20189;-43
2022/01/03 08:22:47;;;;;;;6.50;2.13;;;10.30;99.90;;;;;;5090208;28;20554;-45
2022/01/03 08:25:13;;;;;;;9.80;2.53;;;10.30;99.90;;;;;;5071767;28;20197;-42
2022/01/03 08:27:39;;;;;;;11.30;2.27;;;10.50;99.90;;;;;;5070296;28;20216;-43
2022/01/03 08:30:05;;;;;;;12.83;2.80;;;10.40;99.90;;;;;;5070258;28;20214;-45
2022/01/03 08:32:31;;;;;;;10.67;3.50;;;10.60;99.90;;;;;;5069356;28;20208;-43
2022/01/03 08:34:56;;;;;;;8.63;2.20;;;10.30;99.90;;;;;;5069674;28;20961;-44
2022/01/03 08:37:22;;;;;;;9.53;2.30;;;10.40;99.90;;;;;;5071243;28;20185;-43
2022/01/03 08:39:48;;;;;;;6.80;2.57;;;10.50;99.90;;;;;;5075833;28;20197;-45
2022/01/03 08:42:13;;;;;;;11.97;2.80;;;10.50;99.90;;;;;;5067857;28;20229;-43
2022/01/03 08:44:39;;;;;;;13.70;3.07;;;10.40;99.90;;;;;;5069836;28;20773;-44
2022/01/03 08:47:05;;;;;;;11.50;2.60;;;10.50;99.90;;;;;;5069876;28;20213;-43
2022/01/03 08:49:31;;;;;;;8.83;3.33;;;10.40;99.90;;;;;;5070349;28;20228;-42
2022/01/03 08:51:57;;;;;;;8.90;3.30;;;10.40;99.90;;;;;;5069827;28;20820;-43
2022/01/03 08:54:23;;;;;;;7.27;2.53;;;10.40;99.90;;;;;;5066473;28;20642;-43
2022/01/03 08:56:49;;;;;;;7.73;2.80;;;10.60;99.90;;;;;;5063259;28;20204;-42
2022/01/03 08:59:14;;;;;;;7.90;2.50;;;10.40;99.90;;;;;;5070030;28;20193;-43
2022/01/03 09:01:40;;;;;;;12.50;2.83;;;10.40;99.90;;;;;;5069663;28;20216;-43
2022/01/03 09:04:06;;;;;;;11.53;2.73;;;10.60;99.90;;;;;;5069140;28;20210;-45
2022/01/03 09:06:33;;;;;;;12.57;3.20;;;10.50;99.90;;;;;;5069492;28;20225;-43
2022/01/03 09:08:59;;;;;;;10.30;2.60;;;10.40;99.90;;;;;;5069501;28;20322;-45
2022/01/03 09:11:24;;;;;;;9.80;3.20;;;10.60;99.90;;;;;;5055922;28;20611;-46
2022/01/03 09:13:50;;;;;;;14.40;3.13;;;10.60;99.90;;;;;;5063428;28;20184;-44
2022/01/03 09:16:16;;;;;;;7.77;3.30;;;10.40;99.90;;;;;;5069073;28;20220;-43
2022/01/03 09:18:42;;;;;;;8.87;2.20;;;10.50;99.90;;;;;;5067693;28;20204;-44
2022/01/03 09:21:09;;;;;;;11.17;3.30;;;10.50;99.90;;;;;;5067747;28;20193;-43
2022/01/03 09:23:39;;;;;;;9.10;2.73;;;10.50;99.90;;;;;;5068808;28;20913;-45
2022/01/03 09:28:51;;;;;;;9.90;3.00;;;10.40;99.90;;;;;;5068815;28;20422;-42
2022/01/03 09:31:21;;;;;;;8.23;3.27;;;10.50;99.90;;;;;;5069148;28;20438;-43
2022/01/03 09:33:48;;;;;;;6.60;2.33;;;10.60;99.90;;;;;;5068348;28;20467;-44
2022/01/03 09:36:14;;;;;;;8.80;2.87;;;10.60;99.90;;;;;;5066356;28;20428;-44
2022/01/03 09:38:40;;;;;;;12.50;3.30;;;10.50;99.90;;;;;;5068544;28;20463;-44
2022/01/03 09:41:07;;;;;;;7.20;2.83;;;10.60;99.90;;;;;;5061434;28;20485;-43
2022/01/03 09:43:39;;;;;;;6.70;2.77;;;10.50;99.90;;;;;;5067779;28;20221;-42
2022/01/03 09:46:08;;;;;;;9.90;2.67;;;10.60;99.90;;;;;;5066101;28;20470;-42
2022/01/03 09:48:37;;;;;;;7.70;2.40;;;10.70;99.90;;;;;;5067962;28;20431;-45
2022/01/03 09:51:02;;;;;;;11.33;3.63;;;10.70;99.90;;;;;;5066796;28;20423;-44
2022/01/03 09:53:29;;;;;;;12.97;4.03;;;10.70;99.90;;;;;;5068521;28;20427;-42
2022/01/03 09:55:56;;;;;;;10.63;3.30;;;10.70;99.90;;;;;;5068436;28;20197;-42
2022/01/03 09:58:22;;;;;;;8.20;2.77;;;11.00;99.90;;;;;;5080525;28;20915;-43
2022/01/03 10:00:47;;;;;;;11.17;3.13;;;11.00;99.90;;;;;;5068056;28;20463;-43
2022/01/03 10:03:13;;;;;;;8.57;2.77;;;11.10;99.90;;;;;;5072813;28;20439;-42
2022/01/03 10:05:39;;;;;;;14.27;3.10;;;10.90;99.90;;;;;;5068141;28;20276;-44
2022/01/03 10:08:05;;;;;;;9.40;2.93;;;11.20;99.90;;;;;;5068815;28;20759;-42
2022/01/03 10:10:31;;;;;;;11.77;2.90;;;10.90;99.90;;;;;;5067638;28;20619;-46
2022/01/03 10:12:56;;;;;;;7.57;2.40;;;11.00;99.90;;;;;;5063572;28;20188;-43
2022/01/03 10:15:24;;;;;;;10.33;2.50;;;11.00;99.90;;;;;;5070006;28;20458;-42
2022/01/03 10:17:51;;;;;;;14.27;3.40;;;11.10;99.90;;;;;;5068332;28;20177;-44
2022/01/03 10:20:17;;;;;;;8.13;2.47;;;10.90;99.90;;;;;;5066685;28;20477;-43
2022/01/03 10:22:43;;;;;;;12.03;3.13;;;10.90;99.90;;;;;;5067573;28;20427;-43
2022/01/03 10:25:16;;;;;;;9.60;2.60;;;11.00;99.90;;;;;;5063611;28;20194;-43
2022/01/03 10:27:59;;;;;;;8.63;2.20;;;11.00;99.90;;;;;;5062386;28;20872;-43
2022/01/03 10:30:32;;;;;;;10.40;2.43;;;11.10;99.90;;;;;;5068084;28;20518;-43
2022/01/03 10:32:58;;;;;;;7.53;2.93;;;11.00;99.90;;;;;;5067408;28;20431;-43
2022/01/03 10:35:24;;;;;;;9.40;2.63;;;10.90;99.90;;;;;;5078474;28;20423;-43
2022/01/03 10:37:50;;;;;;;6.97;2.60;;;11.00;99.90;;;;;;5087786;28;20477;-45
2022/01/03 10:40:20;;;;;;;9.37;2.60;;;10.90;99.90;;;;;;5080573;28;20468;-43
2022/01/03 10:42:47;;;;;;;11.30;2.57;;;11.20;99.90;;;;;;5062516;28;20411;-45
2022/01/03 10:45:14;;;;;;;7.07;2.23;;;11.10;99.90;;;;;;5068239;28;20477;-43
2022/01/03 10:47:42;;;;;;;7.63;2.53;;;11.20;99.90;;;;;;5067678;28;20509;-43
2022/01/03 10:50:19;;;;;;;10.20;3.40;;;11.30;99.90;;;;;;5067142;28;20435;-45
2022/01/03 10:52:47;;;;;;;7.90;2.40;;;11.40;99.90;;;;;;5066565;28;20438;-45
2022/01/03 10:55:18;;;;;;;7.50;2.20;;;11.60;99.90;;;;;;5065890;28;20458;-44
2022/01/03 10:58:05;;;;;;;9.27;3.33;;;11.40;99.90;;;;;;5065954;28;20538;-43
2022/01/03 11:00:41;;;;;;;6.87;2.07;;;11.80;99.90;;;;;;5064563;28;20473;-43
2022/01/03 11:05:53;;;;;;;8.30;2.80;;;11.90;99.90;;;;;;5067398;28;20822;-44
2022/01/03 11:11:07;;;;;;;8.90;2.57;;;11.70;99.90;;;;;;5056575;28;20757;-46
2022/01/03 11:13:37;;;;;;;10.73;2.53;;;11.70;99.90;;;;;;5066493;28;20419;-43
2022/01/03 11:16:06;;;;;;;9.47;2.70;;;11.60;99.90;;;;;;5067536;28;20548;-43
2022/01/03 11:18:34;;;;;;;12.93;3.17;;;11.60;99.90;;;;;;5085700;28;20434;-43
2022/01/03 11:21:13;;;;;;;9.27;3.87;;;11.60;99.90;;;;;;5077596;28;20418;-42
2022/01/03 11:24:02;;;;;;;6.13;2.83;;;11.50;99.90;;;;;;5086912;28;21138;-43
2022/01/03 11:26:30;;;;;;;7.47;2.53;;;11.60;99.90;;;;;;5053156;28;20467;-42
2022/01/03 11:28:57;;;;;;;6.67;2.53;;;11.40;99.90;;;;;;5062123;28;20450;-43
2022/01/03 11:31:23;;;;;;;12.60;2.70;;;11.40;99.90;;;;;;5067045;28;20459;-43
2022/01/03 11:33:51;;;;;;;8.93;2.70;;;11.50;99.90;;;;;;5066052;28;20484;-44
2022/01/03 11:36:18;;;;;;;9.23;2.53;;;11.50;99.90;;;;;;5067302;28;20480;-43
2022/01/03 11:38:45;;;;;;;8.33;2.80;;;11.50;99.90;;;;;;5067034;28;20526;-43
2022/01/03 11:41:12;;;;;;;11.10;2.80;;;11.50;99.90;;;;;;5059421;28;20802;-43
2022/01/03 11:43:43;;;;;;;9.40;2.10;;;11.50;99.90;;;;;;5059606;28;20427;-43
2022/01/03 11:46:09;;;;;;;4.50;2.13;;;11.50;99.90;;;;;;5066835;28;20463;-43
2022/01/03 11:48:35;;;;;;;13.07;2.80;;;11.50;99.90;;;;;;5067001;28;20490;-42
2022/01/03 11:51:07;;;;;;;7.20;2.50;;;11.60;99.90;;;;;;5067263;28;20423;-45
2022/01/03 11:53:36;;;;;;;6.23;3.40;;;11.60;99.90;;;;;;5066622;28;20518;-46
2022/01/03 11:56:09;;;;;;;6.47;2.67;;;11.60;99.90;;;;;;5060767;28;20793;-44
2022/01/03 12:04:30;;;;;;;7.23;2.27;;;11.60;99.90;;;;;;5066418;28;20425;-43
2022/01/03 12:07:13;;;;;;;11.10;2.70;;;11.50;99.90;;;;;;5066521;28;20745;-43
2022/01/03 12:09:54;;;;;;;8.90;2.07;;;11.30;99.90;;;;;;5066709;28;20485;-45
2022/01/03 12:12:35;;;;;;;7.70;2.43;;;11.20;99.90;;;;;;5054860;28;20432;-45
2022/01/03 12:15:03;;;;;;;10.20;2.50;;;11.30;99.90;;;;;;5062270;28;20903;-43
2022/01/03 12:17:47;;;;;;;10.63;2.67;;;11.20;99.90;;;;;;5076223;28;20447;-45
2022/01/03 12:20:14;;;;;;;8.33;2.80;;;11.40;99.90;;;;;;5080174;28;20434;-43
2022/01/03 12:22:53;;;;;;;10.27;3.23;;;11.50;99.90;;;;;;5086494;28;20796;-43
2022/01/03 12:25:28;;;;;;;9.30;2.43;;;11.60;99.90;;;;;;5071653;28;20430;-43
2022/01/03 12:27:56;;;;;;;13.40;4.00;;;11.40;99.90;;;;;;5057240;28;20949;-43
2022/01/03 12:30:25;;;;;;;7.23;2.40;;;11.40;99.90;;;;;;5066509;28;20494;-45
2022/01/03 12:33:08;;;;;;;6.50;2.43;;;11.40;99.90;;;;;;5066004;28;20414;-43
2022/01/03 12:35:40;;;;;;;10.23;2.20;;;11.40;99.90;;;;;;5070501;28;20825;-47
2022/01/03 12:38:06;;;;;;;9.13;2.63;;;11.50;99.90;;;;;;5070163;28;20845;-47
2022/01/03 12:40:43;;;;;;;6.57;2.50;;;11.50;99.90;;;;;;5070213;28;20498;-48
2022/01/03 12:43:14;;;;;;;13.73;2.90;;;11.40;99.90;;;;;;5058506;28;20676;-43
2022/01/03 12:45:39;;;;;;;5.90;1.90;;;11.50;99.90;;;;;;5069890;28;20897;-42
2022/01/03 12:48:11;;;;;;;9.63;1.90;;;11.50;99.90;;;;;;5070123;28;20422;-43
2022/01/03 12:50:40;;;;;;;11.53;2.10;;;11.30;99.90;;;;;;5069884;28;20699;-43
2022/01/03 12:53:12;;;;;;;9.83;2.90;;;11.40;99.90;;;;;;5068838;28;20415;-45
2022/01/03 12:55:38;;;;;;;10.10;3.00;;;11.40;99.90;;;;;;5069968;28;20741;-43
2022/01/03 12:58:23;;;;;;;6.47;2.50;;;11.40;99.90;;;;;;5059887;28;20449;-43
2022/01/03 13:00:53;;;;;;;7.70;2.60;;;11.40;99.90;;;;;;5068388;28;20585;-43
2022/01/03 13:03:43;;;;;;;3.40;1.83;;;11.30;99.90;;;;;;5069006;28;20423;-44
2022/01/03 13:06:23;;;;;;;5.60;1.90;;;11.50;99.90;;;;;;5069724;28;20465;-43
2022/01/03 13:08:52;;;;;;;5.70;1.83;;;11.10;99.90;;;;;;5069429;28;20469;-44
2022/01/03 13:11:22;;;;;;;6.97;2.17;;;11.00;99.90;;;;;;5065802;28;20424;-44